Wesley Chapel, Florida
Current Conditions -  °F | °C
As of 10:55 AM on Friday 31 Oct 2014 (Local Time) from KZPH Reporting Station
Clear Clear  
Wind Chill: 72°   Ceiling: Unl
Heat Index: 72°   Visibility: 10mi
Dew Point: 50°   Wind: 12mph
Humidity: 46%   Direction: 310°NW
Pressure: 29.92"   Gusts: NA
Location:  28.24°N, 82.32°W
Report Text: KZPH 311455Z AUTO 31010KT 10SM CLR 22/10 A2992 RMK AO2
Loading
Personal Weather Stations






























Interactive Weather Map
Tropical Storm Tracking
New forecast layout! Learn more

10-Day Weather Forecast

Advertisements
Track Severe Weather on mobile